Aeroporto :
LOGIN :

Iscrizione | Disclaimer

   EN    FR    IT 

 










Sommario :    VFR   VFR Marginale   IFR   IFR Intensivo   IFR Molto Intensivo
Visibilità : 
Base nubi : 
>= 8 km
>= 3000ft
5 / 8 km
1000 / 3000 ft
1500m / 5 km
500 / 1000 ft
800 / 1500m
200 / 500 ft
< 800m
< 200 ft
Simboli :   Temporali  Nebbia  Neve Forte  Precipitazioni Forti  Vento > 20 kt
SIGMETs :   Varie  Temporali  Ghiacco  Turbolenza  Onda orograficha  Ceneri Vulcaniche






- Altitudine del aeroporto : 325 ft
- Codice IATA : BES


LFRB - Brest

ULTIMO METAR :
  • 231600Z AUTO 34009KT 310V010 9999 BKN028 BKN033 15/08 Q1019 NOSIG

METARs OBSOLETI :
  • 231530Z AUTO 34010KT 310V020 9999 BKN028 BKN042 15/09 Q1019 NOSIG
  • 231500Z AUTO 36011KT 320V030 9999 FEW022 BKN029 BKN034 15/10 Q1019 NOSIG
  • 231430Z AUTO 35010KT 310V020 9999 SCT023 BKN031 BKN042 15/10 Q1018 NOSIG
  • 231400Z AUTO 34011KT 320V030 9999 SCT024 BKN031 BKN037 15/09 Q1018 TEMPO 3000 SHRA BKN012 BKN020CB
  • 231330Z AUTO 35010KT 320V030 9999 SCT021 BKN031 OVC043 15/10 Q1018 TEMPO 3000 SHRA BKN012 BKN020CB
  • 231300Z AUTO 34011KT 9999 BKN019 BKN028 BKN043 16/11 Q1018 TEMPO 3000 SHRA BKN012 BKN020CB
  • 231230Z AUTO 34012KT 310V020 9999 BKN019 BKN024 OVC034 16/11 Q1018 TEMPO 3000 SHRA BKN012 BKN020CB
  • 231200Z AUTO 34012KT 310V020 9999 SCT017/// BKN023/// BKN036/// ///TCU 16/12 Q1018 TEMPO 3000 SHRA BKN012 BKN020CB
  • 231130Z AUTO 35010KT 310V020 9999 BKN020 BKN028 BKN034 16/12 Q1018 TEMPO 3000 SHRA BKN012 BKN020CB

TAF TAF LFRB
Valido dal 23 a 12 ore il 24 a 18 ore UTC


231100Z 2312/2418 35010KT 9999 SCT030
TEMPO 2312/2315 3000 SHRA BKN012 BKN020CB
BECMG 2320/2322 VRB05KT
PROB40
TEMPO 2400/2406 2000 BR
ATIS : +33 2 98 32 02 71



MetMap, La meteo Aeronautica in un colpo d'occhio ! - Copyright ORBIFLY Dicembre 2007 - Disclaimer

ORBIFLY MET'MAP TEAM :

Programmazione e sviluppo : Alexandra Zaïnal
Concezione : Baudouin d'Aumeries
Supporto tecnico e logistico : Manuel Goepfert
Aiuto : Marc-Olivier Méhu
Aiuto per la traduzione : Arnaldo La Scala




FONTI E CREDITI :

   NOAA